Time;durP1;ratioP1;P1;durP2;ratioP2;P2;SDS_P1;SDS_P2;PMS_P1;PMS_P2;Temp;Humidity;BMP_temperature;BMP_pressure;BME280_temperature;BME280_humidity;BME280_pressure;Samples;Min_cycle;Max_cycle;Signal;HPM_P1;HPM_P2
2022/02/28 06:56:37;;;;;;;48.85;16.17;;;;;;;-1.04;100.00;100988.22;1422623;99;21036;-64
2022/02/28 07:03:56;;;;;;;18.10;12.30;;;;;;;-0.84;100.00;100995.57;1303954;108;21479;-66
2022/02/28 07:07:16;;;;;;;26.57;15.20;;;;;;;-0.99;100.00;100996.52;1300197;107;21096;-65
2022/02/28 07:10:12;;;;;;;17.50;11.83;;;;;;;-0.74;100.00;101000.31;1313456;108;21139;-65
2022/02/28 07:12:42;;;;;;;27.07;14.00;;;;;;;-0.64;100.00;100997.64;1318763;108;21109;-65
2022/02/28 07:15:09;;;;;;;34.27;15.48;;;;;;;-0.78;100.00;100999.45;1330661;106;21023;-66
2022/02/28 07:17:47;;;;;;;22.95;12.80;;;;;;;-0.42;100.00;101003.02;1296321;106;21106;-63
2022/02/28 07:20:30;;;;;;;16.57;10.82;;;;;;;-0.11;100.00;101007.52;1294401;109;21183;-64
2022/02/28 07:23:12;;;;;;;15.72;8.23;;;;;;;-0.11;100.00;100997.45;1296506;109;21601;-65
2022/02/28 07:29:55;;;;;;;20.45;11.35;;;;;;;-0.15;100.00;101011.91;1293299;107;21083;-66
2022/02/28 07:32:25;;;;;;;26.45;12.25;;;;;;;0.00;100.00;101007.81;1323795;108;21220;-65
2022/02/28 07:34:53;;;;;;;21.05;11.22;;;;;;;0.39;100.00;101015.42;1366465;100;21159;-64
2022/02/28 07:37:22;;;;;;;21.45;10.15;;;;;;;0.63;100.00;101014.80;1480815;96;21402;-64
2022/02/28 07:39:50;;;;;;;16.12;9.53;;;;;;;0.59;100.00;101018.25;1503498;93;20936;-65
2022/02/28 07:46:20;;;;;;;15.50;9.50;;;;;;;0.82;100.00;101020.41;1563003;90;20954;-64
2022/02/28 07:48:50;;;;;;;31.07;14.18;;;;;;;1.06;100.00;101024.54;1518786;93;20972;-63
2022/02/28 07:51:18;;;;;;;18.65;11.43;;;;;;;1.16;100.00;101016.50;1518612;92;20967;-65
2022/02/28 07:53:45;;;;;;;12.68;6.90;;;;;;;1.15;100.00;101024.58;1523225;92;21075;-64
2022/02/28 07:57:07;;;;;;;9.68;7.85;;;;;;;0.98;94.94;101001.16;1517673;93;21562;-64
2022/02/28 07:59:34;;;;;;;10.95;7.05;;;;;;;0.85;95.59;101014.80;1491736;95;21171;-64
2022/02/28 08:02:00;;;;;;;19.00;9.20;;;;;;;0.75;95.72;101019.36;1497352;95;21464;-62
2022/02/28 08:04:35;;;;;;;10.60;6.70;;;;;;;0.78;93.56;101015.08;1462282;96;21100;-64
2022/02/28 08:07:03;;;;;;;18.87;9.53;;;;;;;0.87;94.60;101022.09;1488054;95;21037;-65
2022/02/28 08:09:38;;;;;;;16.77;7.62;;;;;;;1.29;92.01;101020.03;1473980;95;21022;-64
2022/02/28 08:12:06;;;;;;;10.90;5.60;;;;;;;1.27;88.63;101021.53;1449960;96;21173;-63
2022/02/28 08:14:36;;;;;;;20.82;11.30;;;;;;;1.03;86.93;101008.16;1463773;98;21049;-64
2022/02/28 08:17:04;;;;;;;22.95;8.58;;;;;;;0.84;87.21;101019.77;1446298;98;21130;-64
2022/02/28 08:19:33;;;;;;;37.85;12.75;;;;;;;0.99;82.80;101010.27;1491365;93;21054;-63
2022/02/28 08:22:03;;;;;;;10.93;4.37;;;;;;;1.09;82.62;101006.20;1552982;90;21002;-65
2022/02/28 08:24:31;;;;;;;16.95;6.62;;;;;;;1.23;80.79;101014.89;1558425;90;21169;-64
2022/02/28 08:26:57;;;;;;;8.35;5.60;;;;;;;1.15;80.94;101011.35;1604429;87;20885;-63
2022/02/28 08:29:24;;;;;;;10.28;5.60;;;;;;;1.15;78.35;101006.91;1618988;87;20943;-64
2022/02/28 08:31:51;;;;;;;11.65;6.12;;;;;;;1.17;78.70;101006.24;1614568;87;21126;-62
2022/02/28 08:34:18;;;;;;;8.20;5.90;;;;;;;1.37;79.34;101009.52;1614582;86;21523;-65
2022/02/28 08:36:47;;;;;;;28.77;13.25;;;;;;;;;;1614983;87;20908;-64
2022/02/28 08:39:17;;;;;;;15.53;9.55;;;;;;;2.14;74.84;101008.11;1609413;88;21037;-64
2022/02/28 08:41:45;;;;;;;6.90;5.17;;;;;;;2.23;73.09;101007.13;1615822;87;20912;-65
2022/02/28 08:44:14;;;;;;;10.32;5.28;;;;;;;2.28;70.57;101006.14;1636567;87;21552;-65
2022/02/28 08:46:42;;;;;;;10.85;6.55;;;;;;;2.10;69.32;101008.09;1662316;83;20915;-65
2022/02/28 08:49:09;;;;;;;11.50;7.20;;;;;;;2.21;70.21;101002.98;1668211;84;21137;-65
2022/02/28 08:51:37;;;;;;;12.50;5.28;;;;;;;2.46;70.91;101002.00;1701203;83;20979;-65
2022/02/28 08:54:04;;;;;;;4.75;3.50;;;;;;;2.66;65.94;101009.13;1668826;84;20935;-64
2022/02/28 08:56:31;;;;;;;8.43;4.85;;;;;;;2.53;65.37;101000.35;1700893;83;21501;-64
2022/02/28 08:58:58;;;;;;;4.35;3.92;;;;;;;2.34;63.56;101005.97;1701120;83;20929;-62
2022/02/28 09:01:24;;;;;;;5.40;3.90;;;;;;;2.21;64.19;101006.97;1681674;83;21703;-62
2022/02/28 09:03:51;;;;;;;3.55;2.92;;;;;;;2.59;63.63;100994.88;1648057;86;21316;-63
2022/02/28 09:06:18;;;;;;;9.88;4.92;;;;;;;2.48;61.52;101007.98;1701110;83;20884;-64
2022/02/28 09:08:48;;;;;;;10.65;5.90;;;;;;;2.77;59.73;100996.87;1701615;83;21359;-63
2022/02/28 09:11:16;;;;;;;11.53;7.20;;;;;;;2.81;60.83;100999.17;1624955;86;20971;-65
2022/02/28 09:13:48;;;;;;;10.75;5.75;;;;;;;2.90;58.00;100985.73;1621864;85;21175;-65
2022/02/28 09:16:32;;;;;;;8.55;5.15;;;;;;;3.00;58.00;101002.30;1663289;85;20959;-66
2022/02/28 09:18:59;;;;;;;4.03;3.33;;;;;;;2.61;57.41;100992.89;1669264;84;20865;-65
2022/02/28 09:21:26;;;;;;;9.03;4.47;;;;;;;2.63;58.23;101002.02;1701476;83;20920;-66
2022/02/28 09:23:54;;;;;;;8.08;5.08;;;;;;;2.87;58.65;101002.50;1701754;83;21517;-66
2022/02/28 09:26:22;;;;;;;7.45;4.25;;;;;;;3.12;55.72;100978.89;1701095;83;21134;-65
2022/02/28 09:28:49;;;;;;;8.03;3.65;;;;;;;3.43;55.67;100996.72;1681588;84;21319;-65
2022/02/28 09:31:20;;;;;;;10.45;5.25;;;;;;;3.68;52.89;100992.64;1701280;83;20933;-65
2022/02/28 09:33:54;;;;;;;10.60;4.50;;;;;;;3.73;53.28;100995.09;1675423;84;20863;-66
2022/02/28 09:36:21;;;;;;;9.10;4.45;;;;;;;3.77;52.83;100986.27;1701186;83;20872;-64
2022/02/28 09:38:53;;;;;;;13.13;6.35;;;;;;;3.71;52.48;100993.11;1656078;83;21124;-64
2022/02/28 09:41:27;;;;;;;5.10;2.77;;;;;;;3.85;52.21;100995.03;1634200;84;21387;-66
2022/02/28 09:44:16;;;;;;;10.00;6.40;;;;;;;3.58;52.75;100995.00;1701332;83;20936;-66
2022/02/28 09:47:01;;;;;;;6.60;4.75;;;;;;;3.79;53.06;100994.89;1685215;83;20915;-65
2022/02/28 09:49:48;;;;;;;12.15;6.62;;;;;;;3.77;51.96;100970.33;1663416;84;20844;-65
2022/02/28 09:55:46;;;;;;;14.60;7.45;;;;;;;3.70;52.06;100975.53;1626831;87;20888;-65
2022/02/28 09:58:28;;;;;;;8.43;4.80;;;;;;;4.09;52.84;100986.57;1590645;87;20941;-62
2022/02/28 10:00:57;;;;;;;7.12;4.72;;;;;;;4.08;50.87;100997.70;1629753;87;20991;-63
2022/02/28 10:03:27;;;;;;;;;;;;;;;3.67;50.42;100988.31;1628753;87;20964;-63
2022/02/28 10:06:01;;;;;;;5.30;3.92;;;;;;;3.40;50.10;100987.75;1626562;87;21450;-64
2022/02/28 10:08:48;;;;;;;2.67;2.47;;;;;;;3.33;52.24;100985.45;1623707;87;20897;-65
2022/02/28 10:11:34;;;;;;;5.87;4.30;;;;;;;3.31;51.41;100977.69;1626693;87;21015;-63
2022/02/28 10:14:04;;;;;;;6.92;4.58;;;;;;;3.49;51.81;100978.77;1625800;87;21441;-63
2022/02/28 10:16:44;;;;;;;5.17;3.47;;;;;;;4.04;51.63;100973.84;1623053;87;20935;-64
2022/02/28 10:19:29;;;;;;;;;;;;;;;4.46;49.77;100975.70;1627670;87;21060;-64
2022/02/28 10:22:02;;;;;;;5.80;3.83;;;;;;;4.81;49.41;100979.53;1628453;87;20088;-65
2022/02/28 10:24:34;;;;;;;10.63;6.10;;;;;;;4.46;49.56;100969.88;1594284;87;21367;-64
2022/02/28 10:27:19;;;;;;;8.48;4.67;;;;;;;4.57;49.59;100973.10;1624061;87;20932;-64
2022/02/28 10:30:07;;;;;;;8.80;4.95;;;;;;;4.40;49.46;100958.61;1624716;87;21548;-65
2022/02/28 10:32:52;;;;;;;5.85;3.87;;;;;;;4.74;49.36;100962.64;1650276;84;21112;-64
2022/02/28 10:38:20;;;;;;;6.37;3.10;;;;;;;4.79;47.13;100957.59;1651821;85;21326;-66
2022/02/28 10:40:54;;;;;;;7.62;3.40;;;;;;;4.30;46.99;100957.52;1663382;84;20840;-66
2022/02/28 10:43:35;;;;;;;5.72;3.58;;;;;;;4.29;48.20;100961.70;1650145;85;21002;-65
2022/02/28 10:46:22;;;;;;;4.35;3.40;;;;;;;4.54;47.76;100957.00;1649480;85;21216;-64
2022/02/28 10:49:15;;;;;;;4.83;3.35;;;;;;;4.56;48.11;100946.17;1627350;86;20927;-65
2022/02/28 10:51:57;;;;;;;8.28;4.95;;;;;;;4.53;47.56;100944.70;1649558;85;21049;-64
2022/02/28 10:54:32;;;;;;;8.88;5.67;;;;;;;4.66;47.42;100952.08;1648967;85;20895;-65
2022/02/28 10:57:09;;;;;;;3.02;2.45;;;;;;;4.96;47.95;100950.79;1649515;85;21354;-66
2022/02/28 10:59:52;;;;;;;5.72;4.72;;;;;;;4.99;46.96;100937.11;1644228;85;21803;-66
2022/02/28 11:02:36;;;;;;;6.78;4.30;;;;;;;4.88;46.20;100947.20;1649340;85;20851;-65
2022/02/28 11:05:08;;;;;;;2.90;2.70;;;;;;;4.62;46.36;100938.30;1649427;85;20887;-64
2022/02/28 11:07:47;;;;;;;3.87;3.10;;;;;;;4.58;46.30;100942.83;1649553;85;21390;-66
2022/02/28 11:10:17;;;;;;;5.67;2.30;;;;;;;4.46;47.23;100939.30;1627015;86;20998;-66
2022/02/28 11:12:44;;;;;;;2.65;2.33;;;;;;;4.36;46.86;100924.10;1627821;85;21134;-66
2022/02/28 11:15:16;;;;;;;4.72;3.85;;;;;;;4.41;46.64;100926.20;1649271;85;20946;-66
2022/02/28 11:17:46;;;;;;;5.55;2.95;;;;;;;4.53;47.09;100928.75;1649513;85;21425;-66
2022/02/28 11:20:16;;;;;;;7.35;3.58;;;;;;;4.50;47.46;100921.95;1631667;86;20970;-66
2022/02/28 11:22:47;;;;;;;5.42;4.00;;;;;;;4.37;47.66;100938.22;1652884;85;20975;-66
2022/02/28 11:25:24;;;;;;;4.62;3.22;;;;;;;4.69;46.96;100935.75;1628925;85;21517;-67
2022/02/28 11:28:01;;;;;;;6.20;4.72;;;;;;;4.78;46.08;100923.19;1663356;84;20932;-65
2022/02/28 11:30:31;;;;;;;6.35;4.40;;;;;;;5.19;45.55;100927.55;1663098;84;20883;-66
2022/02/28 11:33:18;;;;;;;3.05;2.40;;;;;;;5.08;45.56;100931.52;1663458;84;20848;-67
2022/02/28 11:35:53;;;;;;;4.87;3.58;;;;;;;5.02;44.47;100928.75;1646770;85;20880;-66
2022/02/28 11:38:28;;;;;;;4.22;2.58;;;;;;;4.91;45.20;100913.57;1650128;85;21195;-67
2022/02/28 11:41:01;;;;;;;6.33;3.02;;;;;;;4.80;45.21;100929.16;1663106;85;20986;-65
2022/02/28 11:43:52;;;;;;;2.85;2.65;;;;;;;4.98;46.21;100926.16;1663499;84;20887;-65
2022/02/28 11:46:29;;;;;;;10.43;4.47;;;;;;;5.02;45.24;100928.75;1654603;85;21382;-64
2022/02/28 11:48:55;;;;;;;4.45;2.87;;;;;;;5.30;46.27;100932.42;1644024;85;21449;-65
2022/02/28 11:52:09;;;;;;;6.10;3.95;;;;;;;5.75;45.91;100935.81;1643555;85;21006;-65
2022/02/28 11:54:48;;;;;;;9.68;3.98;;;;;;;5.76;45.10;100930.81;1669903;84;20939;-66
2022/02/28 11:57:54;;;;;;;7.78;4.90;;;;;;;5.49;45.67;100924.87;1643866;85;20950;-66
2022/02/28 12:00:42;;;;;;;8.78;4.08;;;;;;;5.46;44.99;100927.89;1662362;84;20927;-64
2022/02/28 12:03:31;;;;;;;3.87;3.10;;;;;;;5.72;44.62;100929.53;1671051;84;20915;-67
2022/02/28 12:06:03;;;;;;;3.95;2.75;;;;;;;5.90;43.51;100925.62;1671483;84;21145;-67
2022/02/28 12:08:39;;;;;;;4.50;3.67;;;;;;;6.28;41.65;100922.23;1671357;84;21366;-66
2022/02/28 12:11:20;;;;;;;3.77;3.40;;;;;;;6.26;41.29;100922.11;1671270;84;20896;-65
2022/02/28 12:14:07;;;;;;;4.45;3.42;;;;;;;5.70;42.54;100917.41;1671229;84;20864;-66
2022/02/28 12:20:36;;;;;;;11.95;5.45;;;;;;;5.40;43.63;100902.02;1613217;89;21499;-66
2022/02/28 12:23:10;;;;;;;3.77;2.85;;;;;;;5.80;44.66;100923.26;1586534;88;21003;-65
2022/02/28 12:26:31;;;;;;;4.45;3.20;;;;;;;6.13;42.45;100923.63;1564504;90;20888;-66
2022/02/28 12:29:31;;;;;;;6.83;4.80;;;;;;;6.04;42.17;100882.64;1520051;93;21431;-65
2022/02/28 12:32:00;;;;;;;7.03;3.92;;;;;;;5.77;42.72;100916.98;1499052;93;21646;-66
2022/02/28 12:34:43;;;;;;;5.90;3.60;;;;;;;5.89;41.96;100913.32;1532515;93;21100;-65
2022/02/28 12:37:10;;;;;;;8.80;5.60;;;;;;;6.04;41.99;100908.78;1532794;93;20883;-66
2022/02/28 12:40:03;;;;;;;5.62;3.75;;;;;;;6.05;42.42;100914.92;1419340;96;20968;-67
2022/02/28 12:42:31;;;;;;;7.03;3.30;;;;;;;6.40;41.31;100911.87;1462979;96;20997;-66
2022/02/28 12:45:00;;;;;;;3.98;3.37;;;;;;;5.87;40.62;100912.16;1463236;98;21088;-66
2022/02/28 12:47:27;;;;;;;4.33;3.92;;;;;;;5.43;40.82;100917.11;1447302;97;22326;-67
2022/02/28 12:49:56;;;;;;;5.03;3.75;;;;;;;5.63;40.71;100909.86;1456606;96;21079;-66
2022/02/28 12:52:49;;;;;;;7.47;5.72;;;;;;;5.47;40.04;100908.26;1463936;96;21103;-69
2022/02/28 12:55:35;;;;;;;11.10;5.05;;;;;;;5.41;40.96;100910.31;1471729;96;21503;-66
2022/02/28 12:58:09;;;;;;;7.50;5.00;;;;;;;5.69;41.28;100906.45;1442434;98;21063;-68
2022/02/28 13:00:41;;;;;;;;;;;;;;;5.66;39.55;100898.34;1474208;96;21197;-68
2022/02/28 13:07:40;;;;;;;8.48;4.85;;;;;;;5.68;39.65;100894.95;1452365;97;21009;-65
2022/02/28 13:11:16;;;;;;;7.75;5.28;;;;;;;5.72;41.63;100905.55;1438340;98;21059;-65
2022/02/28 13:14:24;;;;;;;7.92;5.28;;;;;;;5.69;41.65;100874.48;1450957;98;21520;-66
2022/02/28 13:17:02;;;;;;;7.05;4.00;;;;;;;6.11;41.49;100898.19;1390649;102;21511;-67
2022/02/28 13:20:03;;;;;;;10.78;6.03;;;;;;;6.37;39.38;100896.23;1395122;101;21023;-65
2022/02/28 13:23:39;;;;;;;5.00;3.37;;;;;;;6.20;38.59;100875.72;1402834;101;21023;-66
2022/02/28 13:26:23;;;;;;;5.60;4.25;;;;;;;5.52;38.50;100888.55;1397494;101;21278;-66
2022/02/28 13:49:42;;;;;;;19.40;7.08;;;;;;;5.48;38.39;100873.43;1190519;117;21156;-66
2022/02/28 13:52:43;;;;;;;8.40;5.12;;;;;;;5.25;40.95;100870.92;1163535;122;21197;-67
2022/02/28 13:56:32;;;;;;;9.20;4.80;;;;;;;5.56;40.45;100872.00;1165080;121;21768;-66
2022/02/28 14:03:32;;;;;;;10.08;5.00;;;;;;;5.17;40.73;100868.38;1128189;125;21281;-65
2022/02/28 14:07:06;;;;;;;8.05;4.65;;;;;;;5.17;41.33;100868.38;1150403;121;21147;-64
2022/02/28 14:17:15;;;;;;;10.13;6.70;;;;;;;4.79;41.27;100873.80;1255026;113;21132;-65
2022/02/28 14:19:58;;;;;;;7.72;5.28;;;;;;;4.87;41.95;100873.70;1242466;114;21107;-64
2022/02/28 14:22:30;;;;;;;8.55;5.55;;;;;;;4.71;40.96;100877.89;1274111;110;21111;-64
2022/02/28 14:25:17;;;;;;;8.33;5.60;;;;;;;4.72;40.87;100868.38;1273366;111;21584;-66
2022/02/28 14:28:18;;;;;;;22.20;10.00;;;;;;;4.53;40.66;100870.75;1273400;111;21214;-65
2022/02/28 14:31:07;;;;;;;47.25;19.57;;;;;;;4.29;40.32;100873.48;1289355;107;21245;-66
2022/02/28 14:33:49;;;;;;;21.87;10.95;;;;;;;4.31;41.78;100859.99;1341788;105;21536;-65
2022/02/28 14:36:19;;;;;;;12.37;8.85;;;;;;;4.38;41.62;100864.91;1342086;105;21125;-66
2022/02/28 14:38:54;;;;;;;24.63;14.43;;;;;;;4.25;40.58;100863.39;1342117;105;21066;-65
2022/02/28 14:41:23;;;;;;;15.05;9.73;;;;;;;4.09;41.27;100857.70;1341273;106;21808;-65
2022/02/28 14:43:55;;;;;;;19.92;13.35;;;;;;;3.97;41.83;100862.63;1340806;106;21067;-64
2022/02/28 14:46:27;;;;;;;11.18;7.80;;;;;;;3.92;42.59;100864.15;1341172;106;21472;-64
2022/02/28 14:49:00;;;;;;;8.33;6.37;;;;;;;3.96;42.66;100864.13;1404691;97;21061;-66
2022/02/28 14:51:43;;;;;;;19.12;11.25;;;;;;;3.89;42.60;100868.50;1471053;95;20933;-63
2022/02/28 14:54:16;;;;;;;14.23;9.55;;;;;;;3.77;42.53;100858.78;1498190;94;21130;-64
2022/02/28 14:57:18;;;;;;;18.10;12.53;;;;;;;3.60;42.39;100870.86;1543897;92;20899;-65
2022/02/28 15:05:59;;;;;;;13.08;7.85;;;;;;;3.16;43.79;100871.91;1543394;91;21082;-66
2022/02/28 15:08:37;;;;;;;13.62;8.38;;;;;;;2.71;44.56;100872.09;1543734;93;21211;-65
2022/02/28 15:11:21;;;;;;;11.97;8.23;;;;;;;2.50;45.12;100860.22;1543513;93;20935;-65
2022/02/28 15:13:51;;;;;;;19.75;10.32;;;;;;;2.35;46.04;100872.48;1524890;93;20935;-64
2022/02/28 15:16:41;;;;;;;26.07;14.80;;;;;;;2.23;46.12;100873.34;1526669;93;21425;-64
2022/02/28 15:19:09;;;;;;;26.55;14.55;;;;;;;2.09;47.45;100868.71;1543775;93;21434;-66
2022/02/28 15:21:41;;;;;;;16.50;10.10;;;;;;;1.98;47.87;100872.50;1543439;93;21164;-64
2022/02/28 15:28:27;;;;;;;10.70;7.90;;;;;;;1.72;49.32;100867.37;1536661;93;21046;-64
2022/02/28 15:35:44;;;;;;;16.77;8.55;;;;;;;1.35;50.57;100873.06;1317068;104;21098;-65
2022/02/28 16:02:36;;;;;;;21.62;12.50;;;;;;;0.58;52.93;100876.53;1280729;111;21101;-63
2022/02/28 16:05:13;;;;;;;23.70;13.80;;;;;;;0.36;53.79;100882.34;1238160;112;21215;-64
2022/02/28 16:07:45;;;;;;;19.52;13.70;;;;;;;0.36;54.26;100877.05;1224812;115;21180;-65
2022/02/28 16:10:12;;;;;;;26.60;14.23;;;;;;;0.33;54.43;100872.09;1243550;115;21256;-65
2022/02/28 16:13:02;;;;;;;35.98;19.35;;;;;;;0.28;55.01;100881.80;1251133;114;21634;-64
2022/02/28 16:15:33;;;;;;;27.48;12.35;;;;;;;0.25;55.72;100878.64;1259988;111;21521;-64
2022/02/28 16:18:00;;;;;;;23.47;13.35;;;;;;;0.21;55.80;100883.39;1270813;108;21261;-63
2022/02/28 16:20:43;;;;;;;22.67;11.93;;;;;;;0.08;56.54;100879.02;1308520;105;21150;-63
2022/02/28 16:23:11;;;;;;;29.63;16.67;;;;;;;-0.03;57.63;100886.16;1353227;103;21230;-63
2022/02/28 16:25:40;;;;;;;28.83;14.15;;;;;;;-0.10;58.24;100881.64;1367311;103;26729;-63
2022/02/28 16:28:20;;;;;;;26.45;13.70;;;;;;;-0.18;59.47;100881.58;1368059;103;21051;-66
2022/02/28 16:31:20;;;;;;;26.93;14.65;;;;;;;-0.32;60.30;100890.38;1313283;109;20980;-63
2022/02/28 16:33:50;;;;;;;25.25;16.00;;;;;;;-0.46;62.36;100887.75;1333624;106;21572;-64
2022/02/28 16:36:54;;;;;;;32.73;16.05;;;;;;;-0.62;63.92;100884.11;1332866;106;21560;-64
2022/02/28 16:39:57;;;;;;;22.55;13.20;;;;;;;-0.78;65.63;100880.32;1330278;107;21553;-66
2022/02/28 16:42:25;;;;;;;35.98;17.42;;;;;;;-0.94;68.52;100882.75;1330103;108;21126;-64
2022/02/28 16:45:30;;;;;;;34.85;15.75;;;;;;;-1.06;69.91;100886.06;1349297;106;21279;-65
2022/02/28 16:47:58;;;;;;;24.95;13.10;;;;;;;-1.17;71.50;100884.45;1349699;106;21041;-65
2022/02/28 16:50:37;;;;;;;21.77;13.22;;;;;;;-1.25;73.62;100888.31;1344221;104;21662;-65
2022/02/28 16:53:18;;;;;;;25.27;12.37;;;;;;;-1.15;74.65;100890.87;1372433;103;21248;-64
2022/02/28 16:56:00;;;;;;;25.90;13.53;;;;;;;-1.19;75.38;100890.84;1354011;104;20964;-65
2022/02/28 16:59:10;;;;;;;23.75;13.35;;;;;;;-1.14;76.14;100892.56;1384571;103;20967;-65
2022/02/28 17:02:36;;;;;;;24.15;11.70;;;;;;;-1.09;74.88;100896.91;1391487;101;21542;-65
2022/02/28 17:05:34;;;;;;;15.55;11.20;;;;;;;-1.00;74.64;100892.09;1411853;100;21066;-64
2022/02/28 17:11:37;;;;;;;13.45;8.60;;;;;;;-0.84;72.86;100895.39;1379690;102;21049;-63
2022/02/28 17:14:26;;;;;;;16.52;8.55;;;;;;;-0.84;72.61;100893.25;1389838;102;21015;-63
2022/02/28 17:20:05;;;;;;;16.17;9.20;;;;;;;-0.80;72.24;100894.13;1339641;105;21113;-64
2022/02/28 17:22:45;;;;;;;15.08;10.18;;;;;;;-0.79;71.89;100892.32;1329148;105;21033;-64
2022/02/28 17:26:11;;;;;;;16.62;10.80;;;;;;;-0.78;71.25;100892.19;1325828;105;21049;-64
2022/02/28 17:33:33;;;;;;;15.40;10.05;;;;;;;-0.61;69.84;100902.90;1264362;111;21079;-65
2022/02/28 17:36:35;;;;;;;19.57;10.10;;;;;;;-0.63;70.14;100904.38;1251417;112;21132;-64
2022/02/28 17:39:52;;;;;;;11.35;8.58;;;;;;;-0.79;71.56;100906.33;1251115;112;21661;-64
2022/02/28 17:43:13;;;;;;;16.70;10.23;;;;;;;-0.90;72.76;100903.41;1243506;113;21157;-64
2022/02/28 17:46:31;;;;;;;11.73;8.00;;;;;;;-0.93;72.99;100910.30;1253726;114;21188;-64
2022/02/28 18:13:34;;;;;;;23.32;12.35;;;;;;;-1.36;76.94;100905.59;1263983;113;21118;-63
2022/02/28 18:46:14;;;;;;;16.23;11.38;;;;;;;-1.58;83.55;100915.97;1312770;108;21081;-65
